createdAt,value
2023-04-11T00:00:39.819Z,955.7460
2023-04-11T00:01:40.360Z,955.7495
2023-04-11T00:03:13.318Z,955.7830
2023-04-11T00:05:08.494Z,955.8813
2023-04-11T00:06:09.400Z,955.9163
2023-04-11T00:07:09.987Z,955.9324
2023-04-11T00:08:10.245Z,955.9121
2023-04-11T00:09:11.147Z,955.9163
2023-04-11T00:10:11.377Z,955.8921
2023-04-11T00:11:11.985Z,955.9208
2023-04-11T00:12:12.331Z,955.9023
2023-04-11T00:13:12.907Z,955.8802
2023-04-11T00:14:13.228Z,955.8961
2023-04-11T00:15:13.726Z,955.9011
2023-04-11T00:16:14.390Z,955.8934
2023-04-11T00:17:14.534Z,955.8911
2023-04-11T00:18:14.913Z,955.9029
2023-04-11T00:19:15.386Z,955.8816
2023-04-11T00:20:15.712Z,955.8737
2023-04-11T00:21:16.146Z,955.8684
2023-04-11T00:22:16.549Z,955.8784
2023-04-11T00:23:17.148Z,955.8771
2023-04-11T00:24:17.427Z,955.8655
2023-04-11T00:25:18.090Z,955.8687
2023-04-11T00:26:18.545Z,955.8437
2023-04-11T00:27:21.285Z,955.8466
2023-04-11T00:28:19.479Z,955.8289
2023-04-11T00:29:20.516Z,955.8174
2023-04-11T00:30:20.913Z,955.8479
2023-04-11T00:31:21.445Z,955.9113
2023-04-11T00:32:22.274Z,955.9418
2023-04-11T00:33:22.802Z,955.9329
2023-04-11T00:34:23.371Z,955.9081
2023-04-11T00:35:23.853Z,955.8771
2023-04-11T00:36:24.815Z,955.8453
2023-04-11T00:37:25.562Z,955.8419
2023-04-11T00:38:26.007Z,955.8552
2023-04-11T00:39:27.345Z,955.8713
2023-04-11T00:40:28.118Z,955.8621
2023-04-11T00:41:29.005Z,955.8529
2023-04-11T00:42:29.310Z,955.8168
2023-04-11T00:43:29.796Z,955.7590
2023-04-11T00:44:30.088Z,955.7126
2023-04-11T00:45:30.588Z,955.6902
2023-04-11T00:46:31.305Z,955.6992
2023-04-11T00:47:32.756Z,955.7394
2023-04-11T00:48:33.274Z,955.7187
2023-04-11T00:49:34.274Z,955.6721
2023-04-11T00:50:34.762Z,955.6252
2023-04-11T00:51:35.232Z,955.5869
2023-04-11T00:52:35.776Z,955.6121
2023-04-11T00:53:36.067Z,955.6058
2023-04-11T00:54:36.539Z,955.5822
2023-04-11T00:55:36.771Z,955.5684
2023-04-11T00:56:37.686Z,955.5640
2023-04-11T00:57:38.016Z,955.5737
2023-04-11T00:58:38.549Z,955.5640
2023-04-11T00:59:38.929Z,955.4926
2023-04-11T01:00:39.481Z,955.3905
2023-04-11T01:01:40.270Z,955.2987
2023-04-11T01:02:40.357Z,955.2916
2023-04-11T01:03:41.888Z,955.3248
2023-04-11T01:04:42.905Z,955.3971
2023-04-11T01:05:43.163Z,955.5010
2023-04-11T01:06:43.637Z,955.4653
2023-04-11T01:07:43.920Z,955.3787
2023-04-11T01:08:44.525Z,955.3066
2023-04-11T01:09:44.835Z,955.2837
2023-04-11T01:10:45.383Z,955.2682
2023-04-11T01:11:45.793Z,955.3247
2023-04-11T01:12:46.639Z,955.3802
2023-04-11T01:13:47.133Z,955.3758
2023-04-11T01:14:47.744Z,955.3829
2023-04-11T01:15:48.087Z,955.3700
2023-04-11T01:16:48.833Z,955.3853
2023-04-11T01:17:49.322Z,955.4661
2023-04-11T01:18:50.437Z,955.4455
2023-04-11T01:19:51.387Z,955.3813
2023-04-11T01:20:51.765Z,955.3132
2023-04-11T01:21:52.370Z,955.2626
2023-04-11T01:22:52.789Z,955.2384
2023-04-11T01:23:53.262Z,955.2018
2023-04-11T01:24:53.547Z,955.1411
2023-04-11T01:25:54.045Z,955.0879
2023-04-11T01:26:54.399Z,955.0905
2023-04-11T01:27:54.934Z,955.1155
2023-04-11T01:28:55.408Z,955.0911
2023-04-11T01:29:56.759Z,955.0618
2023-04-11T01:30:57.192Z,955.1290
2023-04-11T01:31:57.752Z,955.2108
2023-04-11T01:32:58.189Z,955.2545
2023-04-11T01:33:58.708Z,955.2811
2023-04-11T01:34:59.081Z,955.2258
2023-04-11T01:35:59.619Z,955.1848
2023-04-11T01:37:00.058Z,955.1710
2023-04-11T01:38:00.680Z,955.2410
2023-04-11T01:39:00.965Z,955.2895
2023-04-11T01:40:01.550Z,955.3045
2023-04-11T01:41:02.063Z,955.2674
2023-04-11T01:42:02.440Z,955.2877
2023-04-11T01:43:02.668Z,955.2984
2023-04-11T01:44:03.249Z,955.2748
2023-04-11T01:45:03.554Z,955.2558
2023-04-11T01:46:04.029Z,955.2502
2023-04-11T01:47:04.341Z,955.2614
2023-04-11T01:48:04.744Z,955.2319
2023-04-11T01:49:04.903Z,955.2424
2023-04-11T01:50:05.630Z,955.2606
2023-04-11T01:51:05.905Z,955.2658
2023-04-11T01:52:06.486Z,955.2713
2023-04-11T01:53:06.648Z,955.2545
2023-04-11T01:54:07.351Z,955.2300
2023-04-11T01:55:07.640Z,955.1960
2023-04-11T01:56:08.208Z,955.1531
2023-04-11T01:57:08.554Z,955.1198
2023-04-11T01:58:09.462Z,955.0555
2023-04-11T01:59:09.689Z,955.0381
2023-04-11T02:00:10.211Z,955.0234
2023-04-11T02:01:10.526Z,955.0211
2023-04-11T02:02:11.888Z,954.9842
2023-04-11T02:03:11.907Z,954.9424
2023-04-11T02:04:12.734Z,954.9105
2023-04-11T02:05:13.249Z,954.8763
2023-04-11T02:06:13.586Z,954.8579
2023-04-11T02:07:13.932Z,954.8363
2023-04-11T02:08:14.352Z,954.8513
2023-04-11T02:09:15.858Z,954.8134
2023-04-11T02:10:16.214Z,954.8221
2023-04-11T02:11:16.866Z,954.8145
2023-04-11T02:12:17.088Z,954.8166
2023-04-11T02:13:17.673Z,954.8134
2023-04-11T02:14:17.959Z,954.8232
2023-04-11T02:15:18.480Z,954.8676
2023-04-11T02:16:19.136Z,954.8626
2023-04-11T02:17:19.652Z,954.8726
2023-04-11T02:18:20.265Z,954.8860
2023-04-11T02:19:21.438Z,954.8876
2023-04-11T02:20:22.019Z,954.8808
2023-04-11T02:21:22.575Z,954.8687
2023-04-11T02:22:23.098Z,954.9129
2023-04-11T02:23:24.337Z,954.9711
2023-04-11T02:24:23.714Z,954.9794
2023-04-11T02:25:24.179Z,954.9776
2023-04-11T02:26:24.599Z,954.9663
2023-04-11T02:27:24.889Z,954.9645
2023-04-11T02:28:25.439Z,954.9944
2023-04-11T02:29:25.793Z,955.0363
2023-04-11T02:30:26.295Z,955.0427
2023-04-11T02:31:27.055Z,955.0247
2023-04-11T02:32:28.505Z,955.0923
2023-04-11T02:33:29.073Z,955.1005
2023-04-11T02:34:29.644Z,955.1089
2023-04-11T02:35:30.133Z,955.0698
2023-04-11T02:36:31.052Z,955.0621
2023-04-11T02:37:31.370Z,955.0513
2023-04-11T02:38:31.766Z,955.0153
2023-04-11T02:39:32.266Z,955.0547
2023-04-11T02:40:32.830Z,955.0532
2023-04-11T02:41:33.065Z,955.1200
2023-04-11T02:42:33.461Z,955.1013
2023-04-11T02:43:33.858Z,955.1434
2023-04-11T02:44:34.368Z,955.1513
2023-04-11T02:45:34.679Z,955.2384
2023-04-11T02:46:36.002Z,955.2859
2023-04-11T02:47:36.795Z,955.3592
2023-04-11T02:48:37.270Z,955.3168
2023-04-11T02:49:38.000Z,955.3229
2023-04-11T02:50:38.323Z,955.3561
2023-04-11T02:51:38.799Z,955.2966
2023-04-11T02:52:38.989Z,955.2418
2023-04-11T02:53:39.566Z,955.1476
2023-04-11T02:54:39.839Z,955.1024
2023-04-11T02:55:40.319Z,955.0547
2023-04-11T02:56:40.567Z,955.0703
2023-04-11T02:57:41.390Z,955.0710
2023-04-11T02:58:42.047Z,955.1382
2023-04-11T02:59:42.140Z,955.2114
2023-04-11T03:00:42.352Z,955.2545
2023-04-11T03:01:43.501Z,955.3355
2023-04-11T03:02:44.324Z,955.3613
2023-04-11T03:03:44.938Z,955.3925
2023-04-11T03:04:44.777Z,955.3743
2023-04-11T03:05:45.322Z,955.4023
2023-04-11T03:06:45.856Z,955.4563
2023-04-11T03:07:46.357Z,955.4474
2023-04-11T03:08:46.759Z,955.4250
2023-04-11T03:09:47.259Z,955.3842
2023-04-11T03:10:47.583Z,955.3971
2023-04-11T03:11:48.116Z,955.4066
2023-04-11T03:12:48.510Z,955.3774
2023-04-11T03:13:49.070Z,955.3481
2023-04-11T03:14:49.464Z,955.3721
2023-04-11T03:15:50.383Z,955.3834
2023-04-11T03:16:51.043Z,955.3389
2023-04-11T03:17:51.688Z,955.3658
2023-04-11T03:18:52.000Z,955.4750
2023-04-11T03:19:53.181Z,955.5287
2023-04-11T03:20:53.604Z,955.3771
2023-04-11T03:21:54.099Z,955.4503
2023-04-11T03:22:54.760Z,955.3882
2023-04-11T03:23:55.083Z,955.3871
2023-04-11T03:24:55.635Z,955.3571
2023-04-11T03:25:56.123Z,955.5555
2023-04-11T03:26:56.754Z,955.4721
2023-04-11T03:27:57.163Z,955.4966
2023-04-11T03:28:58.611Z,955.5510
2023-04-11T03:29:58.952Z,955.5889
2023-04-11T03:30:59.853Z,955.6076
2023-04-11T03:32:01.091Z,955.6539
2023-04-11T03:33:02.053Z,955.6092
2023-04-11T03:34:02.640Z,955.6063
2023-04-11T03:35:03.130Z,955.7234
2023-04-11T03:36:03.871Z,955.6658
2023-04-11T03:37:04.392Z,955.7289
2023-04-11T03:38:05.389Z,955.6503
2023-04-11T03:39:06.765Z,955.6603
2023-04-11T03:40:07.541Z,955.6871
2023-04-11T03:41:08.353Z,955.6882
2023-04-11T03:42:09.510Z,955.6563
2023-04-11T03:43:10.034Z,955.6357
2023-04-11T03:44:10.488Z,955.6432
2023-04-11T03:45:11.219Z,955.6395
2023-04-11T03:46:11.629Z,955.6255
2023-04-11T03:47:12.983Z,955.6121
2023-04-11T03:48:13.880Z,955.6368
2023-04-11T03:49:14.592Z,955.5876
2023-04-11T03:50:15.226Z,955.6416
2023-04-11T03:51:16.060Z,955.6382
2023-04-11T03:52:16.743Z,955.6292
2023-04-11T03:53:17.242Z,955.6097
2023-04-11T03:54:17.525Z,955.5453
2023-04-11T03:55:18.272Z,955.6202
2023-04-11T03:56:18.720Z,955.6703
2023-04-11T03:57:19.701Z,955.6703
2023-04-11T03:58:20.044Z,955.6718
2023-04-11T03:59:21.144Z,955.6684
2023-04-11T04:00:21.532Z,955.6387
2023-04-11T04:01:22.155Z,955.6353
2023-04-11T04:02:23.593Z,955.6416
2023-04-11T04:03:24.598Z,955.6808
2023-04-11T04:04:24.972Z,955.6658
2023-04-11T04:05:25.752Z,955.6469
2023-04-11T04:06:26.415Z,955.6595
2023-04-11T04:07:26.943Z,955.7103
2023-04-11T04:08:27.542Z,955.6987
2023-04-11T04:09:28.089Z,955.7177
2023-04-11T04:10:28.825Z,955.8118
2023-04-11T04:11:29.333Z,955.8634
2023-04-11T04:12:29.839Z,955.8995
2023-04-11T04:13:30.218Z,955.9282
2023-04-11T04:14:31.690Z,955.9666
2023-04-11T04:15:32.294Z,956.0147
2023-04-11T04:16:33.292Z,956.0223
2023-04-11T04:17:34.229Z,956.0024
2023-04-11T04:18:34.835Z,955.9655
2023-04-11T04:19:35.482Z,956.0103
2023-04-11T04:20:36.084Z,956.0571
2023-04-11T04:21:36.820Z,956.0594
2023-04-11T04:22:37.308Z,956.0374
2023-04-11T04:23:37.975Z,956.0253
2023-04-11T04:24:39.175Z,956.0616
2023-04-11T04:25:40.175Z,956.0369
2023-04-11T04:26:41.023Z,956.0800
2023-04-11T04:27:41.495Z,956.0629
2023-04-11T04:28:42.293Z,955.9955
2023-04-11T04:29:42.704Z,955.9987
2023-04-11T04:30:43.021Z,956.0588
2023-04-11T04:31:43.699Z,956.0142
2023-04-11T04:32:44.997Z,956.0505
2023-04-11T04:33:46.165Z,956.0071
2023-04-11T04:34:47.109Z,956.0782
2023-04-11T04:35:48.189Z,956.0869
2023-04-11T04:37:48.480Z,956.0479
2023-04-11T04:38:49.232Z,956.0150
2023-04-11T04:39:50.030Z,956.1268
2023-04-11T04:40:52.425Z,956.0922
2023-04-11T04:41:53.150Z,956.1421
2023-04-11T04:42:54.016Z,956.1884
2023-04-11T04:43:55.056Z,956.2076
2023-04-11T04:44:56.076Z,956.2181
2023-04-11T04:45:57.005Z,956.2460
2023-04-11T04:46:58.104Z,956.2837
2023-04-11T04:47:59.301Z,956.2994
2023-04-11T04:49:00.965Z,956.3287
2023-04-11T04:50:01.768Z,956.3316
2023-04-11T04:51:02.324Z,956.2853
2023-04-11T04:52:03.530Z,956.2521
2023-04-11T04:53:04.183Z,956.2173
2023-04-11T04:54:05.726Z,956.3021
2023-04-11T04:55:06.722Z,956.2813
2023-04-11T04:56:07.677Z,956.3126
2023-04-11T04:57:08.639Z,956.3224
2023-04-11T04:58:10.047Z,956.3437
2023-04-11T04:59:10.951Z,956.3926
2023-04-11T05:00:12.114Z,956.4326
2023-04-11T05:01:12.594Z,956.4724
2023-04-11T05:02:12.955Z,956.5059
2023-04-11T05:03:13.847Z,956.4487
2023-04-11T05:04:14.478Z,956.4930
2023-04-11T05:05:15.557Z,956.4863
2023-04-11T05:06:15.496Z,956.4525
2023-04-11T05:07:17.196Z,956.4619
2023-04-11T05:08:17.591Z,956.4843
2023-04-11T05:09:18.783Z,956.4400
2023-04-11T05:10:20.177Z,956.4852
2023-04-11T05:11:21.153Z,956.5313
2023-04-11T05:12:21.597Z,956.5497
2023-04-11T05:13:22.288Z,956.5714
2023-04-11T05:14:22.900Z,956.5897
2023-04-11T05:15:24.086Z,956.6387
2023-04-11T05:16:25.474Z,956.6500
2023-04-11T05:17:27.166Z,956.6200
2023-04-11T05:18:28.315Z,956.5870
2023-04-11T05:19:29.449Z,956.5503
2023-04-11T05:20:30.490Z,956.5579
2023-04-11T05:21:31.367Z,956.5840
2023-04-11T05:22:32.571Z,956.6016
2023-04-11T05:23:32.682Z,956.5967
2023-04-11T05:24:33.320Z,956.5895
2023-04-11T05:25:34.622Z,956.5913
2023-04-11T05:26:35.030Z,956.6024
2023-04-11T05:27:36.601Z,956.5479
2023-04-11T05:28:36.976Z,956.5195
2023-04-11T05:29:36.826Z,956.4949
2023-04-11T05:30:37.933Z,956.4808
2023-04-11T05:31:39.486Z,956.4897
2023-04-11T05:32:40.017Z,956.4446
2023-04-11T05:33:41.246Z,956.4453
2023-04-11T05:34:41.569Z,956.4111
2023-04-11T05:35:41.564Z,956.4181
2023-04-11T05:36:42.113Z,956.4332
2023-04-11T05:37:42.969Z,956.4260
2023-04-11T05:40:45.378Z,956.4397
2023-04-11T05:41:46.881Z,956.4857
2023-04-11T05:42:47.095Z,956.5291
2023-04-11T05:43:49.955Z,956.5251
2023-04-11T05:44:52.133Z,956.5203
2023-04-11T05:49:56.536Z,956.5066
2023-04-11T05:50:56.774Z,956.4830
2023-04-11T05:51:58.260Z,956.4509
2023-04-11T05:52:58.403Z,956.4297
2023-04-11T05:54:00.044Z,956.4541
2023-04-11T05:55:01.762Z,956.4757
2023-04-11T05:56:01.758Z,956.4865
2023-04-11T05:58:02.534Z,956.5105
2023-04-11T05:59:03.637Z,956.4908
2023-04-11T06:00:04.162Z,956.4673
2023-04-11T06:01:05.366Z,956.4631
2023-04-11T06:02:06.427Z,956.4553
2023-04-11T06:03:08.232Z,956.4614
2023-04-11T06:04:08.771Z,956.4762
2023-04-11T06:05:08.767Z,956.5034
2023-04-11T06:06:10.115Z,956.4750
2023-04-11T06:07:10.138Z,956.4816
2023-04-11T06:08:11.202Z,956.4666
2023-04-11T06:09:12.212Z,956.5040
2023-04-11T06:10:12.738Z,956.5530
2023-04-11T06:11:12.927Z,956.5757
2023-04-11T06:12:14.173Z,956.5571
2023-04-11T06:13:14.353Z,956.5984
2023-04-11T06:14:14.373Z,956.6103
2023-04-11T06:15:15.102Z,956.6353
2023-04-11T06:16:16.346Z,956.5863
2023-04-11T06:17:16.272Z,956.5322
2023-04-11T06:18:17.475Z,956.5490
2023-04-11T06:19:18.359Z,956.5758
2023-04-11T06:20:19.088Z,956.5862
2023-04-11T06:21:20.106Z,956.6166
2023-04-11T06:22:20.730Z,956.6624
2023-04-11T06:23:21.053Z,956.6611
2023-04-11T06:24:21.853Z,956.6534
2023-04-11T06:25:22.846Z,956.6416
2023-04-11T06:26:23.873Z,956.6492
2023-04-11T06:27:25.155Z,956.6395
2023-04-11T06:28:26.248Z,956.6487
2023-04-11T06:29:25.926Z,956.6370
2023-04-11T06:30:26.771Z,956.6111
2023-04-11T06:31:27.903Z,956.6190
2023-04-11T06:32:28.903Z,956.6226
2023-04-11T06:33:30.118Z,956.6071
2023-04-11T06:34:31.668Z,956.6018
2023-04-11T06:35:32.563Z,956.5911
2023-04-11T06:36:33.706Z,956.6087
2023-04-11T06:37:34.570Z,956.6144
2023-04-11T06:38:35.545Z,956.6321
2023-04-11T06:39:36.416Z,956.6587
2023-04-11T06:40:37.068Z,956.7032
2023-04-11T06:41:37.964Z,956.7026
2023-04-11T06:42:38.924Z,956.6987
2023-04-11T06:43:39.872Z,956.6797
2023-04-11T06:44:41.285Z,956.6747
2023-04-11T06:45:42.201Z,956.6887
2023-04-11T06:46:42.811Z,956.7390
2023-04-11T06:47:44.077Z,956.7913
2023-04-11T06:48:44.881Z,956.8234
2023-04-11T06:49:46.058Z,956.8345
2023-04-11T06:50:47.074Z,956.8674
2023-04-11T06:51:48.332Z,956.8682
2023-04-11T06:52:49.404Z,956.8758
2023-04-11T06:53:50.631Z,956.8387
2023-04-11T06:54:52.252Z,956.8268
2023-04-11T06:55:52.952Z,956.8837
2023-04-11T06:56:53.854Z,956.9200
2023-04-11T06:57:54.457Z,956.9513
2023-04-11T06:58:55.402Z,956.9984
2023-04-11T06:59:56.951Z,957.0108
2023-04-11T07:00:58.104Z,957.0389
2023-04-11T07:01:59.716Z,957.0297
2023-04-11T07:03:00.716Z,957.0446
2023-04-11T07:04:01.507Z,957.0634
2023-04-11T07:05:02.779Z,957.0897
2023-04-11T07:06:03.567Z,957.1060
2023-04-11T07:07:03.990Z,957.1340
2023-04-11T07:08:04.755Z,957.1500
2023-04-11T07:09:05.682Z,957.1840
2023-04-11T07:10:06.482Z,957.1653
2023-04-11T07:11:07.410Z,957.1458
2023-04-11T07:12:08.334Z,957.1984
2023-04-11T07:13:09.273Z,957.1616
2023-04-11T07:14:10.027Z,957.1782
2023-04-11T07:15:11.008Z,957.2987
2023-04-11T07:16:12.010Z,957.2871
2023-04-11T07:17:13.363Z,957.2771
2023-04-11T07:18:14.374Z,957.2613
2023-04-11T07:19:15.534Z,957.2913
2023-04-11T07:20:16.331Z,957.2935
2023-04-11T07:21:17.420Z,957.3195
2023-04-11T07:22:18.102Z,957.3026
2023-04-11T07:23:19.158Z,957.3118
2023-04-11T07:24:19.956Z,957.3140
2023-04-11T07:25:20.729Z,957.3403
2023-04-11T07:26:20.156Z,957.3327
2023-04-11T07:27:21.301Z,957.3289
2023-04-11T07:28:22.204Z,957.3645
2023-04-11T07:29:22.569Z,957.3392
2023-04-11T07:30:24.641Z,957.3734
2023-04-11T07:31:24.256Z,957.3816
2023-04-11T07:32:25.655Z,957.4039
2023-04-11T07:33:26.849Z,957.4247
2023-04-11T07:34:27.060Z,957.4565
2023-04-11T07:35:28.175Z,957.5474
2023-04-11T07:36:29.088Z,957.5682
2023-04-11T07:37:30.100Z,957.5958
2023-04-11T07:38:31.139Z,957.6176
2023-04-11T07:39:32.100Z,957.6337
2023-04-11T07:40:32.972Z,957.6726
2023-04-11T07:41:34.049Z,957.7061
2023-04-11T07:42:34.836Z,957.7339
2023-04-11T07:43:35.883Z,957.7508
2023-04-11T07:44:36.882Z,957.7552
2023-04-11T07:45:38.421Z,957.7313
2023-04-11T07:48:40.038Z,957.6974
2023-04-11T07:49:40.888Z,957.6876
2023-04-11T07:50:41.557Z,957.6808
2023-04-11T07:51:42.545Z,957.7121
2023-04-11T07:52:43.435Z,957.7503
2023-04-11T07:53:44.585Z,957.7855
2023-04-11T07:54:45.389Z,957.8113
2023-04-11T07:55:46.374Z,957.8268
2023-04-11T07:56:47.131Z,957.8445
2023-04-11T07:57:48.194Z,957.8387
2023-04-11T07:58:49.287Z,957.8437
2023-04-11T07:59:50.366Z,957.8353
2023-04-11T08:00:51.201Z,957.8197
2023-04-11T08:01:52.543Z,957.8276
2023-04-11T08:02:53.271Z,957.8594
2023-04-11T08:03:53.428Z,957.8266
2023-04-11T08:04:53.498Z,957.7994
2023-04-11T08:05:53.987Z,957.7852
2023-04-11T08:06:54.811Z,957.7598
2023-04-11T08:07:55.744Z,957.7758
2023-04-11T08:08:56.951Z,957.7739
2023-04-11T08:09:58.024Z,957.8158
2023-04-11T08:10:59.614Z,957.8260
2023-04-11T08:12:00.774Z,957.8363
2023-04-11T08:13:02.190Z,957.8134
2023-04-11T08:14:03.133Z,957.8369
2023-04-11T08:15:04.432Z,957.9045
2023-04-11T08:16:05.539Z,957.9382
2023-04-11T08:17:14.822Z,957.9922
2023-04-11T08:18:07.841Z,958.0057
2023-04-11T08:19:09.282Z,958.0308
2023-04-11T08:20:09.688Z,958.0114
2023-04-11T08:21:10.669Z,958.0132
2023-04-11T08:22:11.318Z,957.9924
2023-04-11T08:23:12.938Z,957.9689
2023-04-11T08:24:13.773Z,957.9855
2023-04-11T08:25:15.161Z,958.0118
2023-04-11T08:26:16.007Z,958.0768
2023-04-11T08:27:17.438Z,958.0863
2023-04-11T08:28:18.640Z,958.0865
2023-04-11T08:29:19.341Z,958.1165
2023-04-11T08:30:20.118Z,958.1479
2023-04-11T08:31:20.655Z,958.1633
2023-04-11T08:32:22.257Z,958.1797
2023-04-11T08:33:21.919Z,958.1851
2023-04-11T08:34:22.977Z,958.2045
2023-04-11T08:35:23.266Z,958.2267
2023-04-11T08:36:24.126Z,958.2181
2023-04-11T08:37:25.286Z,958.2097
2023-04-11T08:38:26.503Z,958.2058
2023-04-11T08:39:27.641Z,958.2390
2023-04-11T08:40:29.740Z,958.2284
2023-04-11T08:41:31.091Z,958.2342
2023-04-11T08:42:31.548Z,958.2695
2023-04-11T08:43:32.735Z,958.2945
2023-04-11T08:44:34.013Z,958.3419
2023-04-11T08:45:35.309Z,958.3450
2023-04-11T08:46:35.469Z,958.3813
2023-04-11T08:47:36.964Z,958.3911
2023-04-11T08:48:37.142Z,958.4008
2023-04-11T08:49:38.036Z,958.4045
2023-04-11T08:50:39.054Z,958.4203
2023-04-11T08:51:39.888Z,958.4408
2023-04-11T08:52:41.661Z,958.4440
2023-04-11T08:53:42.550Z,958.4705
2023-04-11T08:54:43.916Z,958.4713
2023-04-11T08:55:45.008Z,958.4579
2023-04-11T08:56:46.231Z,958.4487
2023-04-11T08:57:47.258Z,958.4421
2023-04-11T08:58:48.306Z,958.4429
2023-04-11T08:59:49.223Z,958.4679
2023-04-11T09:00:50.410Z,958.4592
2023-04-11T09:01:50.584Z,958.4073
2023-04-11T09:02:52.118Z,958.3400
2023-04-11T09:03:53.490Z,958.2951
2023-04-11T09:04:54.713Z,958.3032
2023-04-11T09:05:55.688Z,958.3461
2023-04-11T09:06:57.024Z,958.3895
2023-04-11T09:07:57.353Z,958.3927
2023-04-11T09:08:58.388Z,958.4192
2023-04-11T09:09:59.215Z,958.4834
2023-04-11T09:10:59.865Z,958.4830
2023-04-11T09:12:00.684Z,958.4769
2023-04-11T09:13:01.814Z,958.4529
2023-04-11T09:14:02.692Z,958.4413
2023-04-11T09:15:02.793Z,958.4381
2023-04-11T09:16:04.107Z,958.4263
2023-04-11T09:17:05.386Z,958.4321
2023-04-11T09:18:06.118Z,958.4400
2023-04-11T09:19:07.183Z,958.4568
2023-04-11T09:20:07.243Z,958.4675
2023-04-11T09:21:08.521Z,958.4521
2023-04-11T09:22:09.425Z,958.4595
2023-04-11T09:23:10.717Z,958.4402
2023-04-11T09:24:11.584Z,958.4750
2023-04-11T09:25:12.120Z,958.4951
2023-04-11T09:26:13.109Z,958.4910
2023-04-11T09:27:14.523Z,958.5100
2023-04-11T09:28:15.391Z,958.4990
2023-04-11T09:29:16.600Z,958.5339
2023-04-11T09:30:17.744Z,958.5500
2023-04-11T09:31:19.093Z,958.5563
2023-04-11T09:32:20.109Z,958.5600
2023-04-11T09:34:20.460Z,958.5555
2023-04-11T09:35:21.599Z,958.5497
2023-04-11T09:36:22.624Z,958.5771
2023-04-11T09:37:23.829Z,958.5658
2023-04-11T09:38:24.886Z,958.5634
2023-04-11T09:39:26.031Z,958.5434
2023-04-11T09:40:27.086Z,958.5242
2023-04-11T09:41:28.152Z,958.5110
2023-04-11T09:42:28.938Z,958.5387
2023-04-11T09:43:30.077Z,958.5658
2023-04-11T09:44:30.175Z,958.5862
2023-04-11T09:45:38.256Z,958.6160
2023-04-11T09:46:31.631Z,958.6146
2023-04-11T09:48:45.453Z,958.6021
2023-04-11T09:49:32.081Z,958.6283
2023-04-11T09:50:33.161Z,958.6103
2023-04-11T09:51:36.895Z,958.5876
2023-04-11T09:52:33.801Z,958.6034
2023-04-11T09:53:35.302Z,958.6149
2023-04-11T09:54:36.197Z,958.6202
2023-04-11T09:55:37.371Z,958.5921
2023-04-11T09:56:38.187Z,958.5579
2023-04-11T09:57:39.343Z,958.5460
2023-04-11T09:58:39.990Z,958.5154
2023-04-11T09:59:40.139Z,958.5130
2023-04-11T10:00:41.289Z,958.5234
2023-04-11T10:01:42.687Z,958.5590
2023-04-11T10:02:43.307Z,958.5505
2023-04-11T10:03:44.508Z,958.5068
2023-04-11T10:04:45.951Z,958.4673
2023-04-11T10:05:48.322Z,958.4073
2023-04-11T10:06:47.552Z,958.3039
2023-04-11T10:07:48.607Z,958.2706
2023-04-11T10:08:49.774Z,958.3063
2023-04-11T10:09:50.862Z,958.3721
2023-04-11T10:10:51.496Z,958.3924
2023-04-11T10:11:52.450Z,958.3395
2023-04-11T10:12:53.125Z,958.3203
2023-04-11T10:13:53.993Z,958.3566
2023-04-11T10:14:54.972Z,958.3826
2023-04-11T10:15:56.285Z,958.4208
2023-04-11T10:16:57.592Z,958.4155
2023-04-11T10:17:58.311Z,958.4100
2023-04-11T10:18:59.231Z,958.4255
2023-04-11T10:19:59.651Z,958.4014
2023-04-11T10:21:00.874Z,958.3810
2023-04-11T10:22:02.126Z,958.3584
2023-04-11T10:23:02.944Z,958.4011
2023-04-11T10:24:03.876Z,958.4232
2023-04-11T10:25:04.699Z,958.4755
2023-04-11T10:26:05.969Z,958.4952
2023-04-11T10:27:06.630Z,958.5674
2023-04-11T10:28:07.822Z,958.6245
2023-04-11T10:29:08.900Z,958.6260
2023-04-11T10:31:09.225Z,958.6279
2023-04-11T10:32:09.193Z,958.5779
2023-04-11T10:33:10.276Z,958.5540
2023-04-11T10:34:11.798Z,958.5763
2023-04-11T10:35:12.726Z,958.5984
2023-04-11T10:36:13.375Z,958.6300
2023-04-11T10:37:14.449Z,958.6797
2023-04-11T10:38:15.524Z,958.7458
2023-04-11T10:39:16.457Z,958.7413
2023-04-11T10:40:17.543Z,958.7753
2023-04-11T10:41:18.462Z,958.7584
2023-04-11T10:42:19.559Z,958.7574
2023-04-11T10:43:20.380Z,958.7203
2023-04-11T10:44:53.144Z,958.7379
2023-04-11T10:45:54.528Z,958.7587
2023-04-11T10:46:55.867Z,958.7510
2023-04-11T10:47:57.348Z,958.7616
2023-04-11T10:48:58.481Z,958.7508
2023-04-11T10:49:58.535Z,958.7078
2023-04-11T10:50:59.610Z,958.6956
2023-04-11T10:52:00.920Z,958.6829
2023-04-11T10:53:02.197Z,958.6397
2023-04-11T10:54:02.981Z,958.6522
2023-04-11T10:55:02.972Z,958.6443
2023-04-11T10:56:04.150Z,958.6348
2023-04-11T10:57:05.104Z,958.5847
2023-04-11T10:58:06.300Z,958.5482
2023-04-11T10:59:07.370Z,958.5563
2023-04-11T11:00:08.122Z,958.5430
2023-04-11T11:01:13.213Z,958.5248
2023-04-11T11:02:10.773Z,958.5421
2023-04-11T11:03:12.220Z,958.5532
2023-04-11T11:04:13.459Z,958.5897
2023-04-11T11:05:13.736Z,958.5778
2023-04-11T11:06:13.957Z,958.5746
2023-04-11T11:07:15.493Z,958.5687
2023-04-11T11:08:16.612Z,958.5637
2023-04-11T11:09:17.597Z,958.5455
2023-04-11T11:10:18.847Z,958.5377
2023-04-11T11:11:19.983Z,958.5521
2023-04-11T11:12:21.342Z,958.5953
2023-04-11T11:13:22.566Z,958.6053
2023-04-11T11:14:23.688Z,958.6337
2023-04-11T11:15:24.816Z,958.6271
2023-04-11T11:17:25.871Z,958.6198
2023-04-11T11:18:25.940Z,958.6362
2023-04-11T11:19:26.953Z,958.6140
2023-04-11T11:20:28.269Z,958.6171
2023-04-11T11:21:29.027Z,958.6243
2023-04-11T11:22:28.840Z,958.6053
2023-04-11T11:23:30.022Z,958.6126
2023-04-11T11:24:30.518Z,958.6638
2023-04-11T11:25:31.547Z,958.7021
2023-04-11T11:26:32.899Z,958.7279
2023-04-11T11:27:33.939Z,958.7192
2023-04-11T11:28:35.163Z,958.7347
2023-04-11T11:29:36.142Z,958.7342
2023-04-11T11:30:37.261Z,958.7142
2023-04-11T11:31:37.772Z,958.7211
2023-04-11T11:32:38.230Z,958.7200
2023-04-11T11:33:39.474Z,958.7121
2023-04-11T11:34:40.710Z,958.7479
2023-04-11T11:35:41.860Z,958.7771
2023-04-11T11:36:43.495Z,958.8060
2023-04-11T11:37:44.712Z,958.8176
2023-04-11T11:38:46.241Z,958.8500
2023-04-11T11:39:47.621Z,958.8655
2023-04-11T11:40:48.924Z,958.8545
2023-04-11T11:41:50.079Z,958.9305
2023-04-11T11:42:51.686Z,958.9358
2023-04-11T11:43:52.921Z,958.8790
2023-04-11T11:44:53.479Z,958.8746
2023-04-11T11:45:54.634Z,958.8198
2023-04-11T11:46:54.914Z,958.8134
2023-04-11T11:47:56.048Z,958.8332
2023-04-11T11:48:56.372Z,958.8187
2023-04-11T11:49:56.189Z,958.8262
2023-04-11T11:50:57.502Z,958.8200
2023-04-11T11:51:58.766Z,958.8121
2023-04-11T11:53:00.211Z,958.8098
2023-04-11T11:54:01.440Z,958.7726
2023-04-11T11:55:02.752Z,958.8040
2023-04-11T11:56:04.189Z,958.7932
2023-04-11T11:57:05.484Z,958.7368
2023-04-11T11:58:06.660Z,958.6945
2023-04-11T11:59:06.717Z,958.7051
2023-04-11T12:00:07.970Z,958.7337
2023-04-11T12:01:09.334Z,958.7274
2023-04-11T12:02:10.019Z,958.7368
2023-04-11T12:03:10.612Z,958.7164
2023-04-11T12:04:11.806Z,958.7038
2023-04-11T12:05:12.427Z,958.6786
2023-04-11T12:06:13.157Z,958.6932
2023-04-11T12:07:14.402Z,958.7053
2023-04-11T12:08:15.844Z,958.6860
2023-04-11T12:09:17.323Z,958.6711
2023-04-11T12:10:18.684Z,958.6577